Time;durP1;ratioP1;P1;durP2;ratioP2;P2;SDS_P1;SDS_P2;PMS_P1;PMS_P2;Temp;Humidity;BMP_temperature;BMP_pressure;BME280_temperature;BME280_humidity;BME280_pressure;Samples;Min_cycle;Max_cycle;Signal;HPM_P1;HPM_P2
2022/07/22 00:00:07;;;;;;;8.73;6.45;;;;;;;19.63;75.20;100808.53;5082364;28;20035;-78
2022/07/22 00:02:32;;;;;;;8.75;6.72;;;;;;;19.63;74.70;100806.72;5085857;28;20398;-78
2022/07/22 00:04:57;;;;;;;8.02;6.15;;;;;;;19.67;74.38;100819.06;5062158;28;20119;-78
2022/07/22 00:07:23;;;;;;;10.27;6.78;;;;;;;19.66;73.77;100817.34;5083246;28;20044;-78
2022/07/22 00:09:48;;;;;;;7.95;6.20;;;;;;;19.64;74.42;100821.84;5080219;28;20127;-78
2022/07/22 00:12:13;;;;;;;11.23;5.65;;;;;;;19.63;74.21;100813.88;5082015;28;20118;-77
2022/07/22 00:14:39;;;;;;;10.57;6.55;;;;;;;19.62;74.04;100813.03;5081403;28;20115;-78
2022/07/22 00:17:04;;;;;;;7.65;6.00;;;;;;;19.59;74.69;100815.78;5081327;28;20119;-78
2022/07/22 00:19:30;;;;;;;9.93;6.35;;;;;;;19.42;75.99;100826.31;5082741;28;20057;-77
2022/07/22 00:21:55;;;;;;;9.32;6.50;;;;;;;19.29;75.33;100819.66;5079373;28;20437;-78
2022/07/22 00:24:20;;;;;;;7.88;5.75;;;;;;;19.23;75.71;100827.00;5084827;28;20055;-77
2022/07/22 00:26:46;;;;;;;10.10;6.45;;;;;;;19.19;75.85;100820.00;5048241;28;20031;-78
2022/07/22 00:29:11;;;;;;;9.20;6.45;;;;;;;19.10;76.98;100820.34;5084122;28;20036;-77
2022/07/22 00:31:37;;;;;;;9.38;6.45;;;;;;;19.00;78.29;100821.63;5089377;28;20445;-78
2022/07/22 00:34:02;;;;;;;9.98;7.13;;;;;;;18.85;79.13;100819.50;5089405;28;20047;-78
2022/07/22 00:36:29;;;;;;;10.88;6.70;;;;;;;18.82;79.12;100816.00;5065887;28;20128;-77
2022/07/22 00:38:54;;;;;;;9.30;6.78;;;;;;;18.77;80.90;100822.44;5064689;28;20041;-77
2022/07/22 00:41:20;;;;;;;8.82;6.20;;;;;;;18.71;79.87;100818.16;5090194;28;20067;-77
2022/07/22 00:43:49;;;;;;;11.23;7.07;;;;;;;18.65;80.71;100817.47;5085070;28;20565;-77
2022/07/22 00:46:15;;;;;;;10.77;6.07;;;;;;;18.61;79.95;100816.72;5084411;28;20028;-77
2022/07/22 00:48:40;;;;;;;12.38;6.00;;;;;;;18.62;79.23;100823.81;5085519;28;20040;-77
2022/07/22 00:51:06;;;;;;;9.68;6.28;;;;;;;18.63;78.88;100814.88;5082912;28;20444;-77
2022/07/22 00:53:32;;;;;;;12.80;7.07;;;;;;;18.60;78.85;100825.66;5084027;28;20024;-78
2022/07/22 00:55:57;;;;;;;9.27;7.00;;;;;;;18.33;82.89;100823.00;5068291;28;20035;-78
2022/07/22 00:58:23;;;;;;;9.95;6.13;;;;;;;18.28;81.94;100827.63;5063334;28;20083;-78
2022/07/22 01:00:48;;;;;;;10.90;7.10;;;;;;;18.30;81.46;100831.13;5085614;28;20040;-77
2022/07/22 01:03:13;;;;;;;9.52;6.22;;;;;;;18.35;80.57;100830.97;5066352;28;20035;-78
2022/07/22 01:05:39;;;;;;;10.20;6.93;;;;;;;18.35;80.41;100826.50;5087068;28;20065;-78
2022/07/22 01:08:06;;;;;;;14.00;6.15;;;;;;;18.39;80.37;100830.84;5084316;28;20041;-78
2022/07/22 01:10:31;;;;;;;9.77;6.40;;;;;;;18.47;80.25;100824.34;5069221;28;20538;-78
2022/07/22 01:12:56;;;;;;;9.25;6.65;;;;;;;18.52;80.51;100827.72;5086563;28;20119;-78
2022/07/22 01:15:22;;;;;;;8.77;5.95;;;;;;;18.61;79.58;100822.06;5088949;28;20117;-78
2022/07/22 01:17:47;;;;;;;10.30;6.50;;;;;;;18.70;79.01;100816.38;5066758;28;20032;-78
2022/07/22 01:20:12;;;;;;;9.90;6.68;;;;;;;18.77;79.08;100817.97;5087454;28;20036;-78
2022/07/22 01:22:39;;;;;;;9.05;6.63;;;;;;;18.74;80.00;100818.03;5051555;28;20035;-78
2022/07/22 01:25:04;;;;;;;9.25;6.03;;;;;;;18.68;80.32;100818.28;5068990;28;20036;-78
2022/07/22 01:27:30;;;;;;;9.07;6.68;;;;;;;18.64;81.41;100823.78;5067368;28;20036;-78
2022/07/22 01:29:55;;;;;;;11.35;6.70;;;;;;;18.75;80.53;100819.81;5084758;28;20028;-78
2022/07/22 01:32:20;;;;;;;13.65;7.18;;;;;;;18.72;80.94;100814.53;5066896;28;20383;-78
2022/07/22 01:34:46;;;;;;;11.15;6.90;;;;;;;18.65;80.21;100823.69;5048100;28;20082;-78
2022/07/22 01:37:11;;;;;;;9.13;6.25;;;;;;;18.71;78.70;100817.28;5088053;28;20401;-77
2022/07/22 01:39:37;;;;;;;8.57;6.65;;;;;;;18.73;79.09;100823.44;5081607;28;20503;-78
2022/07/22 01:42:02;;;;;;;11.23;7.65;;;;;;;18.68;79.97;100828.06;5067107;28;20035;-78
2022/07/22 01:44:30;;;;;;;9.13;6.03;;;;;;;18.70;79.73;100828.88;5079392;28;20552;-78
2022/07/22 01:46:57;;;;;;;10.80;6.50;;;;;;;18.65;81.05;100826.38;5058958;28;20033;-78
2022/07/22 01:49:22;;;;;;;8.65;6.40;;;;;;;18.70;80.62;100826.22;5048220;28;20123;-78
2022/07/22 01:51:48;;;;;;;11.80;6.40;;;;;;;18.78;79.89;100824.16;5080321;28;20067;-77
2022/07/22 01:54:14;;;;;;;9.32;6.45;;;;;;;18.80;80.43;100822.31;5050942;28;20054;-78
2022/07/22 01:56:39;;;;;;;11.30;6.00;;;;;;;18.86;79.56;100815.88;5078647;28;20127;-78
2022/07/22 01:59:05;;;;;;;11.07;5.97;;;;;;;18.90;79.05;100822.88;5065467;28;20380;-77
2022/07/22 02:01:31;;;;;;;9.80;6.07;;;;;;;18.94;78.10;100814.69;5065971;28;20414;-77
2022/07/22 02:03:57;;;;;;;9.05;6.65;;;;;;;18.95;78.02;100815.56;5077196;28;20048;-78
2022/07/22 02:06:23;;;;;;;8.35;6.35;;;;;;;18.97;77.54;100821.72;5064027;28;20491;-78
2022/07/22 02:08:50;;;;;;;11.50;6.70;;;;;;;18.97;77.46;100822.59;5067970;28;20031;-78
2022/07/22 02:11:21;;;;;;;8.07;6.53;;;;;;;18.98;77.59;100819.00;5074165;28;20036;-78
2022/07/22 02:13:53;;;;;;;9.40;6.50;;;;;;;18.99;77.94;100814.50;5048351;28;20032;-78
2022/07/22 02:16:19;;;;;;;10.20;6.80;;;;;;;18.99;77.70;100811.84;5082158;28;20621;-78
2022/07/22 02:18:45;;;;;;;8.00;6.18;;;;;;;19.01;77.04;100815.31;5050095;28;20164;-78
2022/07/22 02:21:11;;;;;;;8.20;6.20;;;;;;;18.97;77.24;100816.38;5082640;28;20103;-78
2022/07/22 02:23:36;;;;;;;10.02;6.40;;;;;;;18.89;77.80;100822.00;5067634;28;20051;-78
2022/07/22 02:26:03;;;;;;;8.30;6.03;;;;;;;18.86;77.93;100832.78;5075186;28;20028;-78
2022/07/22 02:28:28;;;;;;;12.13;6.35;;;;;;;18.72;79.04;100822.56;5063262;28;20207;-78
2022/07/22 02:30:54;;;;;;;8.65;5.82;;;;;;;18.65;79.79;100818.34;5065884;28;20055;-78
2022/07/22 02:33:19;;;;;;;10.13;6.15;;;;;;;18.61;79.52;100827.41;5073881;28;20490;-78
2022/07/22 02:35:45;;;;;;;8.00;6.53;;;;;;;18.58;79.41;100832.88;5084099;28;20029;-78
2022/07/22 02:38:11;;;;;;;7.90;6.05;;;;;;;18.53;79.79;100830.34;5064657;28;20032;-78
2022/07/22 02:40:38;;;;;;;7.70;6.35;;;;;;;18.49;79.18;100826.03;5079435;28;20036;-78
2022/07/22 02:43:06;;;;;;;11.35;5.68;;;;;;;18.43;79.80;100833.41;5065757;28;20113;-77
2022/07/22 02:45:32;;;;;;;7.05;5.28;;;;;;;18.37;79.93;100832.69;5076668;28;20032;-78
2022/07/22 02:47:58;;;;;;;7.57;4.80;;;;;;;18.36;79.38;100832.72;5064806;28;20023;-78
2022/07/22 02:50:24;;;;;;;9.18;5.57;;;;;;;18.32;79.20;100833.75;5073425;28;20124;-78
2022/07/22 02:52:51;;;;;;;8.55;5.70;;;;;;;18.24;79.78;100836.69;5069734;28;20576;-78
2022/07/22 02:55:18;;;;;;;8.32;6.00;;;;;;;18.19;79.69;100841.31;5069828;28;20024;-78
2022/07/22 02:57:43;;;;;;;9.18;6.20;;;;;;;18.15;79.55;100840.50;5085466;28;20032;-77
2022/07/22 03:00:11;;;;;;;8.50;6.13;;;;;;;18.09;81.12;100851.41;5073060;28;20034;-78
2022/07/22 03:02:37;;;;;;;9.27;6.50;;;;;;;18.04;80.93;100847.13;5086541;28;20028;-78
2022/07/22 03:05:04;;;;;;;7.28;5.70;;;;;;;18.02;81.05;100846.31;5090895;28;20486;-78
2022/07/22 03:07:30;;;;;;;6.90;5.53;;;;;;;17.97;81.40;100857.13;5064840;28;20028;-78
2022/07/22 03:09:57;;;;;;;8.57;5.53;;;;;;;17.99;81.14;100846.41;5046779;28;20403;-78
2022/07/22 03:12:22;;;;;;;14.75;6.28;;;;;;;18.04;80.87;100847.13;5061585;28;20028;-78
2022/07/22 03:14:47;;;;;;;11.13;5.97;;;;;;;18.08;80.64;100846.13;5060945;28;20094;-78
2022/07/22 03:17:14;;;;;;;9.50;5.68;;;;;;;18.13;80.19;100849.50;5067969;28;20555;-77
2022/07/22 03:19:39;;;;;;;11.48;6.35;;;;;;;18.18;80.06;100845.78;5071159;28;20040;-78
2022/07/22 03:22:04;;;;;;;7.50;5.60;;;;;;;18.17;80.11;100848.47;5073603;28;20501;-78
2022/07/22 03:24:31;;;;;;;6.70;5.05;;;;;;;18.27;79.69;100849.94;5062897;28;20036;-78
2022/07/22 03:26:57;;;;;;;6.18;4.82;;;;;;;18.39;79.73;100845.97;5066303;28;20035;-78
2022/07/22 03:29:22;;;;;;;6.55;4.88;;;;;;;18.54;79.00;100855.28;5068767;28;20059;-77
2022/07/22 03:31:48;;;;;;;6.70;5.05;;;;;;;18.66;78.81;100854.00;5066933;28;20088;-78
2022/07/22 03:34:14;;;;;;;9.48;5.93;;;;;;;18.70;78.46;100853.81;5065118;28;20082;-78
2022/07/22 03:36:47;;;;;;;8.40;5.90;;;;;;;18.82;78.73;100852.56;5080632;28;20028;-78
2022/07/22 03:39:12;;;;;;;6.72;4.70;;;;;;;18.90;78.73;100849.63;5073226;28;20058;-78
2022/07/22 03:41:38;;;;;;;7.88;4.95;;;;;;;18.96;78.35;100854.75;5077716;28;20119;-77
2022/07/22 03:44:04;;;;;;;6.65;5.07;;;;;;;19.01;77.18;100850.97;5067081;28;20036;-78
2022/07/22 03:46:30;;;;;;;13.25;6.78;;;;;;;19.03;77.46;100851.78;5067743;28;20028;-78
2022/07/22 03:48:55;;;;;;;7.60;4.57;;;;;;;19.02;77.75;100852.72;5080100;28;20040;-77
2022/07/22 03:51:21;;;;;;;7.25;5.35;;;;;;;19.09;77.38;100863.19;5065472;28;20524;-78
2022/07/22 03:53:46;;;;;;;7.70;5.47;;;;;;;19.10;77.77;100859.59;5078054;28;20036;-78
2022/07/22 03:56:12;;;;;;;7.85;5.57;;;;;;;19.16;77.15;100849.56;5063949;28;20071;-78
2022/07/22 03:58:37;;;;;;;9.32;6.05;;;;;;;19.31;76.74;100855.25;5063794;28;20516;-78
2022/07/22 04:01:05;;;;;;;7.60;5.80;;;;;;;19.45;75.85;100851.13;5077886;28;20032;-78
2022/07/22 04:03:30;;;;;;;9.65;5.32;;;;;;;19.62;75.36;100855.88;5070661;28;20512;-78
2022/07/22 04:06:22;;;;;;;8.05;5.75;;;;;;;19.81;74.35;100855.19;5075194;28;20032;-78
2022/07/22 04:08:54;;;;;;;9.30;5.90;;;;;;;19.98;74.17;100860.72;5081740;28;20035;-78
2022/07/22 04:11:20;;;;;;;10.57;7.60;;;;;;;20.07;73.24;100862.19;5087776;28;20448;-80
2022/07/22 04:13:45;;;;;;;6.55;4.85;;;;;;;20.17;73.11;100868.00;5082889;28;20130;-78
2022/07/22 04:16:10;;;;;;;9.15;5.55;;;;;;;20.24;72.45;100865.03;5088714;28;20033;-78
2022/07/22 04:18:42;;;;;;;8.93;5.65;;;;;;;20.27;71.30;100866.72;5092334;28;20576;-79
2022/07/22 04:21:08;;;;;;;10.25;5.28;;;;;;;20.30;71.43;100869.25;5079064;28;20032;-78
2022/07/22 04:23:47;;;;;;;9.32;6.55;;;;;;;20.24;71.49;100869.53;5075437;28;20035;-78
2022/07/22 04:26:20;;;;;;;8.77;6.03;;;;;;;20.21;71.74;100864.28;5075711;28;20074;-79
2022/07/22 04:28:47;;;;;;;8.30;5.90;;;;;;;20.28;71.27;100866.66;5080660;28;20032;-78
2022/07/22 04:31:12;;;;;;;8.85;7.30;;;;;;;20.35;71.15;100864.56;5097571;28;20052;-79
2022/07/22 04:33:40;;;;;;;10.70;6.40;;;;;;;20.42;71.05;100862.53;5084203;28;20060;-78
2022/07/22 04:36:06;;;;;;;7.45;5.85;;;;;;;20.50;70.13;100860.41;5068041;28;20044;-79
2022/07/22 04:38:31;;;;;;;13.10;6.00;;;;;;;20.56;70.13;100855.66;5080361;28;20044;-79
2022/07/22 04:41:06;;;;;;;7.80;5.65;;;;;;;20.61;69.51;100857.28;5089103;28;20095;-79
2022/07/22 04:43:32;;;;;;;9.77;6.30;;;;;;;20.52;70.36;100864.75;5103625;28;20058;-80
2022/07/22 04:45:58;;;;;;;8.00;5.68;;;;;;;20.60;70.24;100866.28;5096152;28;20035;-80
2022/07/22 04:48:27;;;;;;;10.00;5.75;;;;;;;20.68;69.49;100861.47;5092154;28;20092;-80
2022/07/22 04:50:53;;;;;;;10.15;6.55;;;;;;;20.79;69.17;100867.22;5091812;28;20034;-79
2022/07/22 04:53:18;;;;;;;8.57;6.28;;;;;;;20.89;69.08;100856.97;5119481;28;20036;-80
2022/07/22 04:55:43;;;;;;;8.20;6.28;;;;;;;20.99;68.92;100864.56;5082696;28;20039;-80
2022/07/22 04:58:09;;;;;;;10.13;6.15;;;;;;;21.16;68.52;100858.41;5102458;28;20036;-79
2022/07/22 05:00:34;;;;;;;9.43;6.15;;;;;;;21.24;68.13;100858.94;5103036;28;20042;-79
2022/07/22 05:03:00;;;;;;;8.68;5.15;;;;;;;21.32;67.79;100858.59;5085193;28;20526;-79
2022/07/22 05:05:25;;;;;;;9.73;6.70;;;;;;;21.38;67.41;100861.06;5082163;28;20036;-79
2022/07/22 05:07:51;;;;;;;7.95;5.75;;;;;;;21.40;67.73;100860.97;5077932;28;20040;-79
2022/07/22 05:10:18;;;;;;;9.60;5.57;;;;;;;21.42;67.87;100853.72;5082227;28;20031;-79
2022/07/22 05:12:43;;;;;;;8.45;5.45;;;;;;;21.49;67.60;100863.25;5082320;28;20041;-80
2022/07/22 05:15:10;;;;;;;10.32;5.80;;;;;;;21.51;68.13;100861.38;5087718;28;20100;-80
2022/07/22 05:17:35;;;;;;;7.22;4.75;;;;;;;21.54;67.52;100866.59;5104593;28;20513;-80
2022/07/22 05:20:11;;;;;;;6.85;5.15;;;;;;;21.54;67.54;100865.72;5080235;28;20043;-79
2022/07/22 05:22:37;;;;;;;8.63;6.80;;;;;;;21.59;67.90;100864.56;5079773;28;20059;-79
2022/07/22 05:25:04;;;;;;;9.23;5.78;;;;;;;21.73;66.93;100869.28;5079417;28;20032;-79
2022/07/22 05:27:30;;;;;;;9.68;5.53;;;;;;;21.93;66.54;100862.97;5095286;22;20051;-78
2022/07/22 05:29:57;;;;;;;7.13;5.93;;;;;;;22.08;65.64;100867.56;5082612;28;20039;-76
2022/07/22 05:32:22;;;;;;;7.13;5.72;;;;;;;22.14;65.68;100866.44;5085521;28;20020;-76
2022/07/22 05:34:51;;;;;;;8.00;5.90;;;;;;;22.10;65.27;100864.81;5077916;28;20054;-76
2022/07/22 05:37:16;;;;;;;6.93;5.30;;;;;;;22.23;63.97;100857.91;5105317;28;20062;-76
2022/07/22 05:39:43;;;;;;;7.85;5.38;;;;;;;22.05;64.81;100856.97;5103352;28;20028;-76
2022/07/22 05:42:08;;;;;;;6.90;5.10;;;;;;;22.02;64.06;100867.00;5101988;28;20079;-76
2022/07/22 05:44:33;;;;;;;5.65;4.78;;;;;;;22.06;64.32;100868.59;5076928;28;20095;-75
2022/07/22 05:46:59;;;;;;;7.40;5.07;;;;;;;21.98;64.83;100862.72;5067072;28;20407;-77
2022/07/22 05:49:26;;;;;;;10.25;5.57;;;;;;;22.02;64.38;100857.13;5079177;28;20680;-75
2022/07/22 05:52:00;;;;;;;5.70;4.50;;;;;;;22.18;64.86;100865.31;5075367;28;20052;-76
2022/07/22 05:54:27;;;;;;;7.15;5.50;;;;;;;22.30;63.77;100863.88;5102994;28;20115;-75
2022/07/22 05:56:53;;;;;;;6.82;4.60;;;;;;;22.31;63.88;100866.47;5069918;28;20112;-76
2022/07/22 05:59:18;;;;;;;6.28;5.15;;;;;;;22.29;63.81;100865.66;5098100;28;20482;-76
2022/07/22 06:01:43;;;;;;;7.63;5.28;;;;;;;22.30;63.98;100867.44;5076681;28;20036;-76
2022/07/22 06:04:29;;;;;;;7.65;5.25;;;;;;;22.48;63.16;100864.78;5088671;28;20046;-76
2022/07/22 06:06:54;;;;;;;7.53;4.95;;;;;;;22.71;62.42;100860.91;5072957;28;20028;-75
2022/07/22 06:09:20;;;;;;;5.20;4.70;;;;;;;22.85;61.69;100870.97;5098218;28;20063;-76
2022/07/22 06:11:46;;;;;;;6.55;4.95;;;;;;;22.63;62.23;100863.13;5075044;28;20024;-76
2022/07/22 06:14:12;;;;;;;6.53;4.53;;;;;;;22.56;62.74;100867.94;5057642;28;20032;-75
2022/07/22 06:16:37;;;;;;;6.95;5.90;;;;;;;22.62;63.11;100878.38;5086225;28;20027;-76
2022/07/22 06:19:03;;;;;;;8.73;4.68;;;;;;;22.76;62.33;100870.47;5082827;28;20040;-76
2022/07/22 06:21:28;;;;;;;10.02;5.28;;;;;;;22.67;61.87;100879.03;5077246;28;20039;-75
2022/07/22 06:23:53;;;;;;;6.35;5.25;;;;;;;22.53;62.81;100873.47;5084464;28;20453;-76
2022/07/22 06:26:19;;;;;;;7.70;5.35;;;;;;;22.63;62.61;100874.75;5083732;28;20049;-75
2022/07/22 06:28:44;;;;;;;8.50;4.95;;;;;;;22.75;62.16;100871.44;5103159;28;20047;-76
2022/07/22 06:31:10;;;;;;;7.63;5.38;;;;;;;22.92;62.00;100877.75;5080387;28;20110;-76
2022/07/22 06:33:35;;;;;;;8.95;5.68;;;;;;;23.00;60.69;100880.94;5077493;28;20434;-76
2022/07/22 06:36:02;;;;;;;7.13;5.10;;;;;;;22.91;60.77;100876.03;5084379;28;20059;-75
2022/07/22 06:38:29;;;;;;;8.32;5.30;;;;;;;22.90;61.44;100874.28;5083066;28;20123;-76
2022/07/22 06:41:13;;;;;;;10.68;4.88;;;;;;;23.06;60.80;100877.94;5092711;28;20414;-76
2022/07/22 06:44:08;;;;;;;5.90;4.93;;;;;;;23.14;60.03;100874.84;5066392;28;20171;-76
2022/07/22 06:46:52;;;;;;;7.05;5.50;;;;;;;23.12;60.24;100874.06;5082349;28;20024;-76
2022/07/22 06:49:19;;;;;;;5.88;4.75;;;;;;;23.20;60.47;100874.50;5083658;28;20035;-76
2022/07/22 06:51:44;;;;;;;6.47;4.18;;;;;;;23.07;60.10;100873.44;5083742;28;20039;-76
2022/07/22 06:54:10;;;;;;;6.18;4.40;;;;;;;23.11;59.39;100877.72;5082436;28;20056;-76
2022/07/22 06:56:36;;;;;;;7.78;5.05;;;;;;;23.17;59.60;100875.53;5103536;28;20079;-76
2022/07/22 06:59:02;;;;;;;6.10;5.00;;;;;;;23.22;59.22;100872.63;5082285;28;20032;-76
2022/07/22 07:01:27;;;;;;;5.45;4.35;;;;;;;23.37;58.98;100871.78;5083665;28;20024;-77
2022/07/22 07:03:55;;;;;;;7.47;4.47;;;;;;;23.60;58.65;100866.97;5066100;28;20028;-76
2022/07/22 07:06:20;;;;;;;5.90;4.28;;;;;;;23.71;57.90;100869.94;5090610;28;20102;-76
2022/07/22 07:09:11;;;;;;;8.63;4.77;;;;;;;23.89;57.99;100868.06;5052660;28;20067;-76
2022/07/22 07:11:37;;;;;;;6.45;4.68;;;;;;;23.93;57.21;100866.94;5075084;28;20066;-77
2022/07/22 07:14:10;;;;;;;6.60;4.80;;;;;;;23.81;56.97;100870.31;5070984;28;20040;-76
2022/07/22 07:16:36;;;;;;;6.05;4.88;;;;;;;23.74;57.40;100869.81;5072765;28;20081;-76
2022/07/22 07:19:01;;;;;;;7.32;4.88;;;;;;;23.83;57.72;100874.66;5076666;28;20035;-76
2022/07/22 07:21:27;;;;;;;6.40;5.00;;;;;;;23.82;57.15;100877.47;5081292;28;20498;-76
2022/07/22 07:23:52;;;;;;;7.07;4.45;;;;;;;23.72;56.91;100877.09;5085078;28;20466;-76
2022/07/22 07:26:18;;;;;;;9.25;4.88;;;;;;;23.71;56.99;100875.34;5081891;28;20123;-76
2022/07/22 07:28:45;;;;;;;6.10;4.45;;;;;;;23.85;57.36;100877.28;5082979;28;20027;-76
2022/07/22 07:31:20;;;;;;;5.90;4.47;;;;;;;23.85;57.56;100874.59;5083053;28;20032;-76
2022/07/22 07:33:50;;;;;;;5.90;4.28;;;;;;;23.87;57.22;100870.00;5076044;28;20028;-76
2022/07/22 07:36:15;;;;;;;8.48;5.00;;;;;;;23.98;57.10;100867.56;5082469;28;20482;-76
2022/07/22 07:38:46;;;;;;;10.23;6.45;;;;;;;24.03;56.49;100870.84;5075004;28;20391;-76
2022/07/22 07:41:14;;;;;;;7.07;4.90;;;;;;;23.85;56.77;100861.13;5063553;28;20047;-76
2022/07/22 07:43:40;;;;;;;6.75;5.05;;;;;;;23.79;57.18;100872.25;5076532;28;20073;-76
2022/07/22 07:46:06;;;;;;;6.72;5.13;;;;;;;23.68;56.92;100867.41;5080361;28;20032;-76
2022/07/22 07:48:31;;;;;;;6.88;4.43;;;;;;;23.61;57.28;100864.19;5079054;28;20084;-76
2022/07/22 07:50:57;;;;;;;11.30;5.82;;;;;;;23.75;57.55;100854.50;5092038;28;20521;-76
2022/07/22 07:53:22;;;;;;;5.97;4.57;;;;;;;24.01;57.10;100861.13;5073186;28;20035;-75
2022/07/22 07:55:48;;;;;;;7.15;5.60;;;;;;;23.99;56.70;100858.50;5079129;28;20131;-76
2022/07/22 07:58:15;;;;;;;6.45;4.63;;;;;;;24.32;56.48;100851.25;5072487;28;20024;-76
2022/07/22 08:00:42;;;;;;;5.72;4.72;;;;;;;24.62;55.48;100854.84;5062983;28;20067;-76
2022/07/22 08:03:08;;;;;;;8.32;5.15;;;;;;;24.55;55.35;100858.00;5079759;28;20028;-76
2022/07/22 08:05:36;;;;;;;10.02;4.82;;;;;;;24.56;55.04;100857.06;5081218;28;20035;-76
2022/07/22 08:08:02;;;;;;;5.85;5.07;;;;;;;24.55;55.02;100849.91;5083112;28;20023;-76
2022/07/22 08:10:28;;;;;;;7.00;4.43;;;;;;;24.49;54.92;100852.00;5097281;28;20031;-76
2022/07/22 08:13:22;;;;;;;5.72;5.10;;;;;;;24.83;54.07;100855.41;5077752;28;20040;-76
2022/07/22 08:16:00;;;;;;;6.95;4.90;;;;;;;25.30;53.32;100857.03;5073013;28;20127;-76
2022/07/22 08:18:29;;;;;;;5.95;4.93;;;;;;;25.53;51.96;100852.03;5074344;28;20110;-77
2022/07/22 08:20:55;;;;;;;8.93;4.72;;;;;;;25.46;51.92;100853.38;5076240;28;20028;-77
2022/07/22 08:23:33;;;;;;;6.53;4.60;;;;;;;25.48;52.06;100851.44;5079833;28;20115;-76
2022/07/22 08:25:58;;;;;;;8.75;4.15;;;;;;;25.38;52.09;100858.41;5078881;28;20020;-76
2022/07/22 08:28:25;;;;;;;6.90;4.60;;;;;;;25.31;52.51;100856.09;5048584;28;989460;-76
2022/07/22 08:30:51;;;;;;;6.45;4.00;;;;;;;25.20;52.42;100847.75;5099189;28;20116;-77
2022/07/22 08:33:17;;;;;;;5.82;4.55;;;;;;;24.88;52.82;100853.28;5079835;28;20447;-76
2022/07/22 08:35:42;;;;;;;7.03;4.43;;;;;;;24.62;53.01;100856.69;5083232;28;20080;-76
2022/07/22 08:38:08;;;;;;;8.60;4.40;;;;;;;24.46;53.97;100848.63;5067433;28;20027;-76
2022/07/22 08:40:33;;;;;;;7.97;5.53;;;;;;;24.39;54.50;100858.00;5080477;28;20541;-76
2022/07/22 08:43:02;;;;;;;5.78;3.78;;;;;;;24.36;54.56;100861.75;5080685;28;20028;-76
2022/07/22 08:45:31;;;;;;;5.95;4.22;;;;;;;24.31;55.42;100863.00;5082657;28;20034;-76
2022/07/22 08:47:58;;;;;;;4.95;4.18;;;;;;;24.30;54.84;100861.25;5083509;28;20038;-77
2022/07/22 08:50:44;;;;;;;7.18;3.97;;;;;;;24.06;55.14;100864.41;5094111;28;20044;-76
2022/07/22 08:53:23;;;;;;;4.53;3.38;;;;;;;23.87;55.31;100858.31;5082086;28;20115;-76
2022/07/22 08:55:52;;;;;;;5.35;3.50;;;;;;;24.00;55.42;100868.34;5086040;28;20039;-76
2022/07/22 08:58:17;;;;;;;4.53;3.75;;;;;;;23.88;55.29;100873.56;5086320;28;20019;-76
2022/07/22 09:00:43;;;;;;;5.43;3.85;;;;;;;23.80;55.53;100871.28;5094112;28;20039;-76
2022/07/22 09:03:20;;;;;;;4.43;3.63;;;;;;;24.01;54.83;100863.81;5087064;28;20027;-76
2022/07/22 09:05:46;;;;;;;5.75;3.45;;;;;;;24.08;54.85;100862.50;5087221;28;20039;-76
2022/07/22 09:08:14;;;;;;;4.40;3.78;;;;;;;24.19;54.76;100869.97;5086173;28;20031;-76
2022/07/22 09:10:53;;;;;;;4.43;3.63;;;;;;;24.45;54.30;100866.66;5083351;28;20032;-76
2022/07/22 09:13:37;;;;;;;4.70;3.65;;;;;;;24.77;52.76;100855.78;5097198;28;20089;-76
2022/07/22 09:16:47;;;;;;;5.68;4.57;;;;;;;24.91;53.13;100857.63;5094368;28;20519;-76
2022/07/22 09:19:32;;;;;;;8.02;4.15;;;;;;;25.25;51.50;100851.03;5102686;28;20048;-76
2022/07/22 09:22:39;;;;;;;4.82;4.32;;;;;;;25.71;51.15;100850.84;5080437;28;20047;-76
2022/07/22 09:25:31;;;;;;;4.95;4.55;;;;;;;26.02;49.82;100849.75;5078422;28;20032;-76
2022/07/22 09:28:18;;;;;;;4.70;3.85;;;;;;;26.10;50.33;100851.09;5087408;28;20409;-76
2022/07/22 09:31:02;;;;;;;6.03;4.25;;;;;;;25.94;49.92;100843.13;5096407;28;20085;-76
2022/07/22 09:33:31;;;;;;;6.65;3.97;;;;;;;25.90;50.14;100842.44;5080178;28;20067;-76
2022/07/22 09:36:15;;;;;;;4.78;3.80;;;;;;;25.91;49.77;100843.28;5100666;28;20028;-76
2022/07/22 09:38:41;;;;;;;6.25;4.10;;;;;;;25.80;49.99;100836.72;5083968;28;20036;-76
2022/07/22 09:41:07;;;;;;;6.13;4.60;;;;;;;25.90;49.82;100836.16;5068193;28;20066;-76
2022/07/22 09:43:36;;;;;;;4.93;4.20;;;;;;;26.30;49.75;100838.91;5081379;28;20032;-76
2022/07/22 09:46:03;;;;;;;7.53;5.13;;;;;;;26.70;47.59;100830.81;5076881;28;20055;-76
2022/07/22 09:48:48;;;;;;;6.43;5.72;;;;;;;27.27;46.00;100831.34;5099673;28;20081;-76
2022/07/22 09:51:35;;;;;;;8.50;6.47;;;;;;;27.55;45.80;100823.91;5086533;28;20122;-76
2022/07/22 09:54:18;;;;;;;7.88;5.10;;;;;;;27.57;44.49;100823.81;5076287;28;20023;-76
2022/07/22 09:56:45;;;;;;;7.22;5.40;;;;;;;27.30;44.56;100827.50;5081516;28;20578;-76
2022/07/22 09:59:12;;;;;;;8.02;6.20;;;;;;;27.26;45.30;100824.16;5083099;28;20039;-77
2022/07/22 10:01:42;;;;;;;7.82;4.63;;;;;;;27.18;44.91;100823.00;5079736;28;20038;-76
2022/07/22 10:04:10;;;;;;;7.93;6.28;;;;;;;27.07;45.71;100831.84;5078610;28;20077;-77
2022/07/22 10:06:38;;;;;;;4.85;4.22;;;;;;;26.94;45.10;100828.28;5079136;28;20103;-76
2022/07/22 10:09:07;;;;;;;5.97;5.38;;;;;;;26.70;45.71;100830.81;5064145;28;20185;-76
2022/07/22 10:11:36;;;;;;;5.03;4.57;;;;;;;26.81;44.84;100831.81;5083725;28;20027;-76
2022/07/22 10:14:02;;;;;;;6.05;4.63;;;;;;;26.60;45.03;100834.19;5103635;28;20031;-76
2022/07/22 10:16:28;;;;;;;4.72;4.32;;;;;;;26.67;44.41;100831.91;5082689;28;20032;-76
2022/07/22 10:18:53;;;;;;;5.13;4.63;;;;;;;26.50;45.62;100838.44;5085790;28;20080;-76
2022/07/22 10:21:31;;;;;;;5.55;4.63;;;;;;;26.66;44.40;100839.16;5066958;28;20043;-76
2022/07/22 10:24:09;;;;;;;5.20;4.70;;;;;;;26.64;44.52;100846.50;5101511;28;20462;-76
2022/07/22 10:26:52;;;;;;;5.30;4.82;;;;;;;26.84;43.97;100830.75;5079952;28;20066;-76
2022/07/22 10:29:32;;;;;;;5.03;4.53;;;;;;;27.23;44.23;100834.38;5093584;28;20069;-77
2022/07/22 10:32:15;;;;;;;5.03;4.60;;;;;;;27.38;42.41;100824.25;5102337;28;20108;-76
2022/07/22 10:34:59;;;;;;;5.72;5.18;;;;;;;27.53;43.04;100825.84;5101039;28;20043;-75
2022/07/22 10:37:33;;;;;;;6.05;5.45;;;;;;;28.02;42.68;100824.13;5098938;28;20078;-75
2022/07/22 10:40:11;;;;;;;5.13;4.63;;;;;;;28.44;41.65;100819.19;5098517;28;20502;-75
2022/07/22 10:43:06;;;;;;;5.07;4.47;;;;;;;28.71;40.83;100822.47;5081700;28;20690;-75
2022/07/22 10:45:46;;;;;;;5.63;4.30;;;;;;;28.53;40.16;100816.63;5099143;28;20028;-75
2022/07/22 10:48:30;;;;;;;4.72;4.32;;;;;;;28.46;40.25;100822.66;5097938;28;20028;-75
2022/07/22 10:51:15;;;;;;;5.22;4.72;;;;;;;28.40;40.29;100811.25;5096502;28;20039;-75
2022/07/22 10:53:59;;;;;;;5.25;4.68;;;;;;;28.55;40.45;100817.38;5099591;28;20111;-75
2022/07/22 10:56:33;;;;;;;6.60;4.28;;;;;;;28.27;40.36;100821.31;5100166;28;20036;-75
2022/07/22 10:59:10;;;;;;;4.15;3.75;;;;;;;28.06;41.12;100826.50;5096945;28;20038;-75
2022/07/22 11:01:38;;;;;;;4.43;4.03;;;;;;;27.97;41.40;100830.75;5099676;28;20571;-75
2022/07/22 11:04:25;;;;;;;4.22;3.83;;;;;;;27.97;40.23;100833.47;5103425;28;20056;-75
2022/07/22 11:06:56;;;;;;;4.47;4.07;;;;;;;27.68;40.97;100824.75;5103398;28;20035;-75
2022/07/22 11:09:31;;;;;;;6.57;4.17;;;;;;;27.75;42.01;100836.03;5101031;28;20061;-75
2022/07/22 11:11:56;;;;;;;4.75;4.35;;;;;;;27.54;42.32;100828.47;5099600;28;20281;-75
2022/07/22 11:14:31;;;;;;;5.13;4.72;;;;;;;27.73;41.41;100827.13;5103402;28;20130;-75
2022/07/22 11:16:57;;;;;;;5.00;4.50;;;;;;;27.91;41.32;100831.22;5101220;28;20547;-75
2022/07/22 11:19:28;;;;;;;4.90;4.40;;;;;;;27.79;41.39;100813.09;5100945;28;20553;-75
2022/07/22 11:22:03;;;;;;;5.10;4.70;;;;;;;28.16;40.81;100823.94;5102678;28;20044;-76
2022/07/22 11:24:30;;;;;;;5.03;4.57;;;;;;;28.39;39.65;100819.50;5101701;28;20482;-75
2022/07/22 11:26:56;;;;;;;5.40;4.90;;;;;;;28.24;39.85;100810.66;5100698;28;20036;-76
2022/07/22 11:29:26;;;;;;;5.63;5.22;;;;;;;28.50;39.54;100810.56;5099008;28;20032;-75
2022/07/22 11:31:53;;;;;;;5.15;4.75;;;;;;;28.40;39.57;100819.41;5093670;28;20032;-76